sensor_id;sensor_type;location;lat;lon;timestamp;P1;durP1;ratioP1;P2;durP2;ratioP2
17606;SDS011;8922;52.240;20.980;2022-11-20T00:01:15;25.83;;;15.90;;
17606;SDS011;8922;52.240;20.980;2022-11-20T00:03:43;31.87;;;17.03;;
17606;SDS011;8922;52.240;20.980;2022-11-20T00:06:13;27.27;;;16.63;;
17606;SDS011;8922;52.240;20.980;2022-11-20T00:08:41;29.30;;;16.43;;
17606;SDS011;8922;52.240;20.980;2022-11-20T00:11:09;29.20;;;16.67;;
17606;SDS011;8922;52.240;20.980;2022-11-20T00:13:37;28.90;;;17.87;;
17606;SDS011;8922;52.240;20.980;2022-11-20T00:16:05;30.30;;;17.43;;
17606;SDS011;8922;52.240;20.980;2022-11-20T00:18:34;26.10;;;16.63;;
17606;SDS011;8922;52.240;20.980;2022-11-20T00:21:01;29.63;;;17.23;;
17606;SDS011;8922;52.240;20.980;2022-11-20T00:23:30;27.70;;;17.33;;
17606;SDS011;8922;52.240;20.980;2022-11-20T00:26:00;30.07;;;16.70;;
17606;SDS011;8922;52.240;20.980;2022-11-20T00:28:27;28.77;;;16.80;;
17606;SDS011;8922;52.240;20.980;2022-11-20T00:30:59;28.43;;;16.50;;
17606;SDS011;8922;52.240;20.980;2022-11-20T00:33:27;28.23;;;17.37;;
17606;SDS011;8922;52.240;20.980;2022-11-20T00:35:58;27.20;;;16.17;;
17606;SDS011;8922;52.240;20.980;2022-11-20T00:38:26;28.13;;;16.37;;
17606;SDS011;8922;52.240;20.980;2022-11-20T00:40:55;31.77;;;17.13;;
17606;SDS011;8922;52.240;20.980;2022-11-20T00:43:23;35.57;;;18.10;;
17606;SDS011;8922;52.240;20.980;2022-11-20T00:45:50;28.70;;;16.73;;
17606;SDS011;8922;52.240;20.980;2022-11-20T00:48:21;29.87;;;16.77;;
17606;SDS011;8922;52.240;20.980;2022-11-20T00:50:48;28.37;;;17.47;;
17606;SDS011;8922;52.240;20.980;2022-11-20T00:53:15;30.03;;;16.23;;
17606;SDS011;8922;52.240;20.980;2022-11-20T00:55:42;28.53;;;15.90;;
17606;SDS011;8922;52.240;20.980;2022-11-20T00:58:10;29.43;;;16.53;;
17606;SDS011;8922;52.240;20.980;2022-11-20T01:00:37;29.00;;;15.73;;
17606;SDS011;8922;52.240;20.980;2022-11-20T01:03:03;25.93;;;16.63;;
17606;SDS011;8922;52.240;20.980;2022-11-20T01:05:33;31.10;;;17.83;;
17606;SDS011;8922;52.240;20.980;2022-11-20T01:08:00;34.73;;;18.27;;
17606;SDS011;8922;52.240;20.980;2022-11-20T01:10:27;27.17;;;16.13;;
17606;SDS011;8922;52.240;20.980;2022-11-20T01:12:55;28.40;;;15.57;;
17606;SDS011;8922;52.240;20.980;2022-11-20T01:15:37;23.63;;;13.83;;
17606;SDS011;8922;52.240;20.980;2022-11-20T01:18:03;23.50;;;14.70;;
17606;SDS011;8922;52.240;20.980;2022-11-20T01:20:33;25.90;;;15.50;;
17606;SDS011;8922;52.240;20.980;2022-11-20T01:23:00;33.60;;;15.13;;
17606;SDS011;8922;52.240;20.980;2022-11-20T01:25:27;25.30;;;15.53;;
17606;SDS011;8922;52.240;20.980;2022-11-20T01:27:54;27.03;;;15.63;;
17606;SDS011;8922;52.240;20.980;2022-11-20T01:30:21;27.77;;;15.67;;
17606;SDS011;8922;52.240;20.980;2022-11-20T01:32:49;26.40;;;15.60;;
17606;SDS011;8922;52.240;20.980;2022-11-20T01:35:16;29.53;;;16.50;;
17606;SDS011;8922;52.240;20.980;2022-11-20T01:37:43;27.53;;;15.27;;
17606;SDS011;8922;52.240;20.980;2022-11-20T01:40:10;28.03;;;15.37;;
17606;SDS011;8922;52.240;20.980;2022-11-20T01:42:37;27.07;;;16.20;;
17606;SDS011;8922;52.240;20.980;2022-11-20T01:48:17;26.73;;;15.57;;
17606;SDS011;8922;52.240;20.980;2022-11-20T01:50:46;25.50;;;15.67;;
17606;SDS011;8922;52.240;20.980;2022-11-20T01:53:13;26.03;;;14.60;;
17606;SDS011;8922;52.240;20.980;2022-11-20T01:55:43;27.33;;;15.10;;
17606;SDS011;8922;52.240;20.980;2022-11-20T01:58:15;26.37;;;15.87;;
17606;SDS011;8922;52.240;20.980;2022-11-20T02:00:42;27.33;;;15.33;;
17606;SDS011;8922;52.240;20.980;2022-11-20T02:03:10;24.23;;;14.73;;
17606;SDS011;8922;52.240;20.980;2022-11-20T02:05:41;24.13;;;15.13;;
17606;SDS011;8922;52.240;20.980;2022-11-20T02:08:12;26.83;;;15.30;;
17606;SDS011;8922;52.240;20.980;2022-11-20T02:10:39;25.53;;;14.87;;
17606;SDS011;8922;52.240;20.980;2022-11-20T02:13:06;27.73;;;15.10;;
17606;SDS011;8922;52.240;20.980;2022-11-20T02:15:51;29.90;;;15.43;;
17606;SDS011;8922;52.240;20.980;2022-11-20T02:18:19;28.77;;;16.07;;
17606;SDS011;8922;52.240;20.980;2022-11-20T02:20:49;26.80;;;16.53;;
17606;SDS011;8922;52.240;20.980;2022-11-20T02:23:21;26.23;;;16.33;;
17606;SDS011;8922;52.240;20.980;2022-11-20T02:25:55;29.00;;;16.80;;
17606;SDS011;8922;52.240;20.980;2022-11-20T02:28:23;31.00;;;17.20;;
17606;SDS011;8922;52.240;20.980;2022-11-20T02:30:50;28.13;;;16.70;;
17606;SDS011;8922;52.240;20.980;2022-11-20T02:33:17;30.87;;;16.33;;
17606;SDS011;8922;52.240;20.980;2022-11-20T02:35:45;27.70;;;16.20;;
17606;SDS011;8922;52.240;20.980;2022-11-20T02:38:13;26.73;;;16.93;;
17606;SDS011;8922;52.240;20.980;2022-11-20T02:40:40;25.63;;;15.97;;
17606;SDS011;8922;52.240;20.980;2022-11-20T02:43:09;28.50;;;16.87;;
17606;SDS011;8922;52.240;20.980;2022-11-20T02:45:36;30.37;;;16.00;;
17606;SDS011;8922;52.240;20.980;2022-11-20T02:48:03;29.53;;;17.50;;
17606;SDS011;8922;52.240;20.980;2022-11-20T02:50:31;30.57;;;16.40;;
17606;SDS011;8922;52.240;20.980;2022-11-20T02:52:58;26.80;;;15.73;;
17606;SDS011;8922;52.240;20.980;2022-11-20T02:55:25;28.90;;;16.50;;
17606;SDS011;8922;52.240;20.980;2022-11-20T02:57:52;30.53;;;17.23;;
17606;SDS011;8922;52.240;20.980;2022-11-20T03:00:20;29.37;;;16.70;;
17606;SDS011;8922;52.240;20.980;2022-11-20T03:02:47;29.40;;;16.63;;
17606;SDS011;8922;52.240;20.980;2022-11-20T03:05:14;30.80;;;15.77;;
17606;SDS011;8922;52.240;20.980;2022-11-20T03:07:41;28.97;;;16.20;;
17606;SDS011;8922;52.240;20.980;2022-11-20T03:10:09;30.27;;;16.73;;
17606;SDS011;8922;52.240;20.980;2022-11-20T03:12:36;25.57;;;14.83;;
17606;SDS011;8922;52.240;20.980;2022-11-20T03:15:03;24.97;;;15.60;;
17606;SDS011;8922;52.240;20.980;2022-11-20T03:17:32;30.50;;;15.97;;
17606;SDS011;8922;52.240;20.980;2022-11-20T03:19:59;26.93;;;16.90;;
17606;SDS011;8922;52.240;20.980;2022-11-20T03:22:28;23.43;;;15.00;;
17606;SDS011;8922;52.240;20.980;2022-11-20T03:24:55;26.73;;;15.20;;
17606;SDS011;8922;52.240;20.980;2022-11-20T03:27:21;30.27;;;16.63;;
17606;SDS011;8922;52.240;20.980;2022-11-20T03:29:48;25.60;;;16.17;;
17606;SDS011;8922;52.240;20.980;2022-11-20T03:32:15;29.67;;;17.03;;
17606;SDS011;8922;52.240;20.980;2022-11-20T03:34:43;29.53;;;16.57;;
17606;SDS011;8922;52.240;20.980;2022-11-20T03:37:10;28.13;;;16.23;;
17606;SDS011;8922;52.240;20.980;2022-11-20T03:39:36;31.10;;;17.10;;
17606;SDS011;8922;52.240;20.980;2022-11-20T03:42:03;27.43;;;17.10;;
17606;SDS011;8922;52.240;20.980;2022-11-20T03:44:50;29.27;;;17.10;;
17606;SDS011;8922;52.240;20.980;2022-11-20T03:47:17;30.83;;;17.87;;
17606;SDS011;8922;52.240;20.980;2022-11-20T03:49:45;30.20;;;17.33;;
17606;SDS011;8922;52.240;20.980;2022-11-20T03:52:12;26.67;;;17.13;;
17606;SDS011;8922;52.240;20.980;2022-11-20T03:54:39;28.47;;;17.43;;
17606;SDS011;8922;52.240;20.980;2022-11-20T03:57:06;37.70;;;19.20;;
17606;SDS011;8922;52.240;20.980;2022-11-20T03:59:32;31.20;;;18.23;;
17606;SDS011;8922;52.240;20.980;2022-11-20T04:01:59;29.00;;;18.10;;
17606;SDS011;8922;52.240;20.980;2022-11-20T04:04:26;31.43;;;18.50;;
17606;SDS011;8922;52.240;20.980;2022-11-20T04:06:54;29.43;;;18.03;;
17606;SDS011;8922;52.240;20.980;2022-11-20T04:09:21;39.70;;;20.03;;
17606;SDS011;8922;52.240;20.980;2022-11-20T04:11:48;31.90;;;18.10;;
17606;SDS011;8922;52.240;20.980;2022-11-20T04:14:15;33.43;;;18.23;;
17606;SDS011;8922;52.240;20.980;2022-11-20T04:16:42;35.63;;;18.80;;
17606;SDS011;8922;52.240;20.980;2022-11-20T04:19:11;32.33;;;18.17;;
17606;SDS011;8922;52.240;20.980;2022-11-20T04:21:39;34.43;;;18.53;;
17606;SDS011;8922;52.240;20.980;2022-11-20T04:24:07;33.53;;;18.90;;
17606;SDS011;8922;52.240;20.980;2022-11-20T04:26:35;33.83;;;18.27;;
17606;SDS011;8922;52.240;20.980;2022-11-20T04:29:02;32.63;;;18.17;;
17606;SDS011;8922;52.240;20.980;2022-11-20T04:31:31;35.50;;;17.90;;
17606;SDS011;8922;52.240;20.980;2022-11-20T04:33:59;30.80;;;17.33;;
17606;SDS011;8922;52.240;20.980;2022-11-20T04:36:28;34.53;;;17.80;;
17606;SDS011;8922;52.240;20.980;2022-11-20T04:38:56;34.27;;;17.67;;
17606;SDS011;8922;52.240;20.980;2022-11-20T04:41:25;33.33;;;17.90;;
17606;SDS011;8922;52.240;20.980;2022-11-20T04:43:54;28.90;;;16.60;;
17606;SDS011;8922;52.240;20.980;2022-11-20T04:46:24;28.63;;;15.77;;
17606;SDS011;8922;52.240;20.980;2022-11-20T04:48:52;31.47;;;17.50;;
17606;SDS011;8922;52.240;20.980;2022-11-20T04:51:19;30.67;;;18.10;;
17606;SDS011;8922;52.240;20.980;2022-11-20T04:53:46;30.30;;;17.13;;
17606;SDS011;8922;52.240;20.980;2022-11-20T04:56:13;24.97;;;15.03;;
17606;SDS011;8922;52.240;20.980;2022-11-20T04:58:41;24.87;;;15.63;;
17606;SDS011;8922;52.240;20.980;2022-11-20T05:06:19;25.30;;;16.00;;
17606;SDS011;8922;52.240;20.980;2022-11-20T05:11:22;27.03;;;15.77;;
17606;SDS011;8922;52.240;20.980;2022-11-20T05:13:51;23.93;;;14.60;;
17606;SDS011;8922;52.240;20.980;2022-11-20T05:24:03;27.63;;;15.57;;
17606;SDS011;8922;52.240;20.980;2022-11-20T05:31:39;26.33;;;14.83;;
17606;SDS011;8922;52.240;20.980;2022-11-20T05:36:33;26.80;;;16.43;;
17606;SDS011;8922;52.240;20.980;2022-11-20T05:39:00;25.93;;;15.03;;
17606;SDS011;8922;52.240;20.980;2022-11-20T05:41:27;25.93;;;15.53;;
17606;SDS011;8922;52.240;20.980;2022-11-20T05:43:55;26.03;;;15.40;;
17606;SDS011;8922;52.240;20.980;2022-11-20T05:46:22;24.70;;;15.30;;
17606;SDS011;8922;52.240;20.980;2022-11-20T05:48:51;27.63;;;15.90;;
17606;SDS011;8922;52.240;20.980;2022-11-20T05:51:18;25.13;;;14.90;;
17606;SDS011;8922;52.240;20.980;2022-11-20T05:53:45;25.37;;;15.07;;
17606;SDS011;8922;52.240;20.980;2022-11-20T05:56:12;27.23;;;15.40;;
17606;SDS011;8922;52.240;20.980;2022-11-20T05:58:41;28.03;;;15.93;;
17606;SDS011;8922;52.240;20.980;2022-11-20T06:01:08;25.77;;;15.93;;
17606;SDS011;8922;52.240;20.980;2022-11-20T06:03:37;24.43;;;15.47;;
17606;SDS011;8922;52.240;20.980;2022-11-20T06:06:06;27.27;;;15.97;;
17606;SDS011;8922;52.240;20.980;2022-11-20T06:08:33;26.00;;;15.37;;
17606;SDS011;8922;52.240;20.980;2022-11-20T06:11:02;29.80;;;16.43;;
17606;SDS011;8922;52.240;20.980;2022-11-20T06:13:30;22.87;;;15.00;;
17606;SDS011;8922;52.240;20.980;2022-11-20T06:15:57;28.50;;;16.67;;
17606;SDS011;8922;52.240;20.980;2022-11-20T06:18:25;31.13;;;17.13;;
17606;SDS011;8922;52.240;20.980;2022-11-20T06:20:58;27.10;;;15.67;;
17606;SDS011;8922;52.240;20.980;2022-11-20T06:23:28;31.10;;;16.73;;
17606;SDS011;8922;52.240;20.980;2022-11-20T06:25:56;28.93;;;15.57;;
17606;SDS011;8922;52.240;20.980;2022-11-20T06:28:23;27.40;;;16.27;;
17606;SDS011;8922;52.240;20.980;2022-11-20T06:30:50;26.77;;;14.90;;
17606;SDS011;8922;52.240;20.980;2022-11-20T06:33:17;30.07;;;16.70;;
17606;SDS011;8922;52.240;20.980;2022-11-20T06:35:44;31.57;;;16.73;;
17606;SDS011;8922;52.240;20.980;2022-11-20T06:38:10;30.43;;;16.13;;
17606;SDS011;8922;52.240;20.980;2022-11-20T06:40:40;32.93;;;16.00;;
17606;SDS011;8922;52.240;20.980;2022-11-20T06:43:07;29.63;;;16.13;;
17606;SDS011;8922;52.240;20.980;2022-11-20T06:45:34;27.30;;;16.77;;
17606;SDS011;8922;52.240;20.980;2022-11-20T06:48:01;27.00;;;15.60;;
17606;SDS011;8922;52.240;20.980;2022-11-20T06:50:28;32.77;;;17.13;;
17606;SDS011;8922;52.240;20.980;2022-11-20T06:52:54;26.30;;;16.10;;
17606;SDS011;8922;52.240;20.980;2022-11-20T06:55:21;28.60;;;16.73;;
17606;SDS011;8922;52.240;20.980;2022-11-20T06:57:49;27.23;;;15.57;;
17606;SDS011;8922;52.240;20.980;2022-11-20T07:00:16;35.33;;;16.10;;
17606;SDS011;8922;52.240;20.980;2022-11-20T07:02:44;28.10;;;16.03;;
17606;SDS011;8922;52.240;20.980;2022-11-20T07:05:10;30.27;;;16.77;;
17606;SDS011;8922;52.240;20.980;2022-11-20T07:07:37;28.53;;;16.33;;
17606;SDS011;8922;52.240;20.980;2022-11-20T07:10:05;30.53;;;17.13;;
17606;SDS011;8922;52.240;20.980;2022-11-20T07:12:32;32.60;;;17.73;;
17606;SDS011;8922;52.240;20.980;2022-11-20T07:15:00;30.73;;;16.37;;
17606;SDS011;8922;52.240;20.980;2022-11-20T07:17:27;29.10;;;17.70;;
17606;SDS011;8922;52.240;20.980;2022-11-20T07:19:53;32.93;;;17.20;;
17606;SDS011;8922;52.240;20.980;2022-11-20T07:22:21;27.83;;;16.63;;
17606;SDS011;8922;52.240;20.980;2022-11-20T07:24:47;28.13;;;16.47;;
17606;SDS011;8922;52.240;20.980;2022-11-20T07:27:14;28.83;;;17.23;;
17606;SDS011;8922;52.240;20.980;2022-11-20T07:29:41;28.53;;;17.23;;
17606;SDS011;8922;52.240;20.980;2022-11-20T07:32:09;31.63;;;17.93;;
17606;SDS011;8922;52.240;20.980;2022-11-20T07:34:36;30.00;;;17.80;;
17606;SDS011;8922;52.240;20.980;2022-11-20T07:37:03;30.80;;;17.27;;
17606;SDS011;8922;52.240;20.980;2022-11-20T07:39:29;28.87;;;16.80;;
17606;SDS011;8922;52.240;20.980;2022-11-20T07:41:56;26.90;;;17.37;;
17606;SDS011;8922;52.240;20.980;2022-11-20T07:44:23;31.93;;;19.03;;
17606;SDS011;8922;52.240;20.980;2022-11-20T07:46:50;27.83;;;17.63;;
17606;SDS011;8922;52.240;20.980;2022-11-20T07:49:18;27.03;;;17.13;;
17606;SDS011;8922;52.240;20.980;2022-11-20T07:51:44;30.77;;;17.37;;
17606;SDS011;8922;52.240;20.980;2022-11-20T07:54:11;32.57;;;18.87;;
17606;SDS011;8922;52.240;20.980;2022-11-20T07:56:38;27.80;;;16.67;;
17606;SDS011;8922;52.240;20.980;2022-11-20T07:59:05;29.10;;;17.87;;
17606;SDS011;8922;52.240;20.980;2022-11-20T08:01:32;36.60;;;19.33;;
17606;SDS011;8922;52.240;20.980;2022-11-20T08:03:58;26.40;;;17.20;;
17606;SDS011;8922;52.240;20.980;2022-11-20T08:06:27;31.13;;;19.37;;
17606;SDS011;8922;52.240;20.980;2022-11-20T08:08:53;30.97;;;17.83;;
17606;SDS011;8922;52.240;20.980;2022-11-20T08:11:20;29.47;;;18.60;;
17606;SDS011;8922;52.240;20.980;2022-11-20T08:14:04;29.03;;;17.80;;
17606;SDS011;8922;52.240;20.980;2022-11-20T08:16:41;33.43;;;18.90;;
17606;SDS011;8922;52.240;20.980;2022-11-20T08:19:09;32.97;;;18.90;;
17606;SDS011;8922;52.240;20.980;2022-11-20T08:21:37;31.83;;;18.47;;
17606;SDS011;8922;52.240;20.980;2022-11-20T08:24:05;31.07;;;18.73;;
17606;SDS011;8922;52.240;20.980;2022-11-20T08:26:33;31.17;;;18.33;;
17606;SDS011;8922;52.240;20.980;2022-11-20T08:29:03;29.23;;;19.00;;
17606;SDS011;8922;52.240;20.980;2022-11-20T08:31:30;29.30;;;19.37;;
17606;SDS011;8922;52.240;20.980;2022-11-20T08:33:58;31.60;;;19.97;;
17606;SDS011;8922;52.240;20.980;2022-11-20T08:36:25;33.63;;;19.07;;
17606;SDS011;8922;52.240;20.980;2022-11-20T08:38:54;32.57;;;20.37;;
17606;SDS011;8922;52.240;20.980;2022-11-20T08:41:22;31.30;;;19.27;;
17606;SDS011;8922;52.240;20.980;2022-11-20T08:43:53;33.93;;;20.97;;
17606;SDS011;8922;52.240;20.980;2022-11-20T08:46:21;32.13;;;20.70;;
17606;SDS011;8922;52.240;20.980;2022-11-20T08:48:49;29.97;;;20.27;;
17606;SDS011;8922;52.240;20.980;2022-11-20T08:51:16;30.63;;;20.87;;
17606;SDS011;8922;52.240;20.980;2022-11-20T08:53:44;27.17;;;20.33;;
17606;SDS011;8922;52.240;20.980;2022-11-20T08:56:12;27.97;;;20.73;;
17606;SDS011;8922;52.240;20.980;2022-11-20T08:58:39;28.77;;;22.10;;
17606;SDS011;8922;52.240;20.980;2022-11-20T09:01:06;29.97;;;21.90;;
17606;SDS011;8922;52.240;20.980;2022-11-20T09:03:33;28.42;;;21.58;;
17606;SDS011;8922;52.240;20.980;2022-11-20T09:06:02;28.02;;;20.88;;
17606;SDS011;8922;52.240;20.980;2022-11-20T09:08:31;27.65;;;21.58;;
17606;SDS011;8922;52.240;20.980;2022-11-20T09:10:58;28.77;;;22.33;;
17606;SDS011;8922;52.240;20.980;2022-11-20T09:13:27;31.58;;;22.70;;
17606;SDS011;8922;52.240;20.980;2022-11-20T09:15:55;28.17;;;22.38;;
17606;SDS011;8922;52.240;20.980;2022-11-20T09:18:23;32.08;;;22.67;;
17606;SDS011;8922;52.240;20.980;2022-11-20T09:20:50;30.38;;;22.65;;
17606;SDS011;8922;52.240;20.980;2022-11-20T09:23:17;29.70;;;22.30;;
17606;SDS011;8922;52.240;20.980;2022-11-20T09:25:44;28.63;;;22.92;;
17606;SDS011;8922;52.240;20.980;2022-11-20T09:28:11;27.85;;;22.88;;
17606;SDS011;8922;52.240;20.980;2022-11-20T09:30:39;30.85;;;23.38;;
17606;SDS011;8922;52.240;20.980;2022-11-20T09:33:06;30.08;;;24.63;;
17606;SDS011;8922;52.240;20.980;2022-11-20T09:35:33;28.55;;;22.45;;
17606;SDS011;8922;52.240;20.980;2022-11-20T09:38:04;28.70;;;22.83;;
17606;SDS011;8922;52.240;20.980;2022-11-20T09:40:32;30.80;;;24.00;;
17606;SDS011;8922;52.240;20.980;2022-11-20T09:43:02;26.75;;;22.10;;
17606;SDS011;8922;52.240;20.980;2022-11-20T09:45:37;30.45;;;23.80;;
17606;SDS011;8922;52.240;20.980;2022-11-20T09:48:18;28.27;;;23.10;;
17606;SDS011;8922;52.240;20.980;2022-11-20T09:50:54;28.98;;;24.02;;
17606;SDS011;8922;52.240;20.980;2022-11-20T09:53:29;30.08;;;24.10;;
17606;SDS011;8922;52.240;20.980;2022-11-20T09:56:01;30.73;;;24.63;;
17606;SDS011;8922;52.240;20.980;2022-11-20T09:58:31;30.08;;;24.15;;
17606;SDS011;8922;52.240;20.980;2022-11-20T10:01:05;29.80;;;23.83;;
17606;SDS011;8922;52.240;20.980;2022-11-20T10:03:39;28.45;;;23.77;;
17606;SDS011;8922;52.240;20.980;2022-11-20T10:06:12;26.83;;;23.25;;
17606;SDS011;8922;52.240;20.980;2022-11-20T10:08:44;29.00;;;24.67;;
17606;SDS011;8922;52.240;20.980;2022-11-20T10:11:17;27.48;;;22.77;;
17606;SDS011;8922;52.240;20.980;2022-11-20T10:13:49;28.60;;;23.45;;
17606;SDS011;8922;52.240;20.980;2022-11-20T10:16:26;27.58;;;23.00;;
17606;SDS011;8922;52.240;20.980;2022-11-20T10:19:01;28.60;;;25.42;;
17606;SDS011;8922;52.240;20.980;2022-11-20T10:21:38;30.42;;;26.08;;
17606;SDS011;8922;52.240;20.980;2022-11-20T10:24:19;27.83;;;23.63;;
17606;SDS011;8922;52.240;20.980;2022-11-20T10:26:59;27.02;;;23.00;;
17606;SDS011;8922;52.240;20.980;2022-11-20T10:29:39;29.67;;;25.83;;
17606;SDS011;8922;52.240;20.980;2022-11-20T10:32:11;27.25;;;22.52;;
17606;SDS011;8922;52.240;20.980;2022-11-20T10:34:44;26.35;;;22.85;;
17606;SDS011;8922;52.240;20.980;2022-11-20T10:37:17;23.98;;;21.33;;
17606;SDS011;8922;52.240;20.980;2022-11-20T10:39:50;26.30;;;22.10;;
17606;SDS011;8922;52.240;20.980;2022-11-20T10:42:22;28.60;;;22.65;;
17606;SDS011;8922;52.240;20.980;2022-11-20T10:44:58;26.63;;;21.70;;
17606;SDS011;8922;52.240;20.980;2022-11-20T10:47:31;24.70;;;21.90;;
17606;SDS011;8922;52.240;20.980;2022-11-20T10:50:01;24.45;;;21.92;;
17606;SDS011;8922;52.240;20.980;2022-11-20T10:52:32;25.70;;;21.60;;
17606;SDS011;8922;52.240;20.980;2022-11-20T10:55:11;25.08;;;22.23;;
17606;SDS011;8922;52.240;20.980;2022-11-20T10:57:51;24.27;;;21.73;;
17606;SDS011;8922;52.240;20.980;2022-11-20T11:00:22;26.25;;;21.42;;
17606;SDS011;8922;52.240;20.980;2022-11-20T11:02:51;23.73;;;21.00;;
17606;SDS011;8922;52.240;20.980;2022-11-20T11:05:26;23.20;;;20.75;;
17606;SDS011;8922;52.240;20.980;2022-11-20T11:08:00;23.98;;;21.33;;
17606;SDS011;8922;52.240;20.980;2022-11-20T11:10:28;22.98;;;20.55;;
17606;SDS011;8922;52.240;20.980;2022-11-20T11:13:02;23.23;;;20.80;;
17606;SDS011;8922;52.240;20.980;2022-11-20T11:15:30;22.92;;;20.00;;
17606;SDS011;8922;52.240;20.980;2022-11-20T11:18:05;25.65;;;21.73;;
17606;SDS011;8922;52.240;20.980;2022-11-20T11:20:35;23.95;;;21.45;;
17606;SDS011;8922;52.240;20.980;2022-11-20T11:23:02;23.48;;;20.67;;
17606;SDS011;8922;52.240;20.980;2022-11-20T11:25:30;22.65;;;20.25;;
17606;SDS011;8922;52.240;20.980;2022-11-20T11:28:00;23.52;;;21.00;;
17606;SDS011;8922;52.240;20.980;2022-11-20T11:30:29;23.13;;;20.73;;
17606;SDS011;8922;52.240;20.980;2022-11-20T11:33:11;24.25;;;19.88;;
17606;SDS011;8922;52.240;20.980;2022-11-20T11:35:45;22.95;;;20.10;;
17606;SDS011;8922;52.240;20.980;2022-11-20T11:38:14;23.67;;;21.17;;
17606;SDS011;8922;52.240;20.980;2022-11-20T11:40:45;26.48;;;21.52;;
17606;SDS011;8922;52.240;20.980;2022-11-20T11:43:17;24.50;;;21.88;;
17606;SDS011;8922;52.240;20.980;2022-11-20T11:46:07;24.25;;;21.65;;
17606;SDS011;8922;52.240;20.980;2022-11-20T11:48:55;26.77;;;20.77;;
17606;SDS011;8922;52.240;20.980;2022-11-20T11:51:23;25.45;;;20.98;;
17606;SDS011;8922;52.240;20.980;2022-11-20T11:53:55;24.35;;;21.13;;
17606;SDS011;8922;52.240;20.980;2022-11-20T11:56:24;27.50;;;21.27;;
17606;SDS011;8922;52.240;20.980;2022-11-20T11:58:53;26.90;;;20.83;;
17606;SDS011;8922;52.240;20.980;2022-11-20T12:01:26;27.73;;;20.97;;
17606;SDS011;8922;52.240;20.980;2022-11-20T12:04:02;28.50;;;19.77;;
17606;SDS011;8922;52.240;20.980;2022-11-20T12:06:34;28.13;;;20.77;;
17606;SDS011;8922;52.240;20.980;2022-11-20T12:09:05;30.37;;;20.40;;
17606;SDS011;8922;52.240;20.980;2022-11-20T12:11:37;32.13;;;21.13;;
17606;SDS011;8922;52.240;20.980;2022-11-20T12:14:13;27.57;;;20.53;;
17606;SDS011;8922;52.240;20.980;2022-11-20T12:16:44;28.93;;;19.73;;
17606;SDS011;8922;52.240;20.980;2022-11-20T12:19:13;29.10;;;18.63;;
17606;SDS011;8922;52.240;20.980;2022-11-20T12:21:43;29.50;;;18.73;;
17606;SDS011;8922;52.240;20.980;2022-11-20T12:24:31;29.17;;;18.70;;
17606;SDS011;8922;52.240;20.980;2022-11-20T12:27:15;30.03;;;19.03;;
17606;SDS011;8922;52.240;20.980;2022-11-20T12:29:59;28.00;;;18.90;;
17606;SDS011;8922;52.240;20.980;2022-11-20T12:32:32;32.27;;;19.20;;
17606;SDS011;8922;52.240;20.980;2022-11-20T12:35:21;29.43;;;19.63;;
17606;SDS011;8922;52.240;20.980;2022-11-20T12:38:02;30.80;;;19.13;;
17606;SDS011;8922;52.240;20.980;2022-11-20T12:40:44;29.33;;;18.23;;
17606;SDS011;8922;52.240;20.980;2022-11-20T12:43:17;27.37;;;17.33;;
17606;SDS011;8922;52.240;20.980;2022-11-20T12:46:13;25.77;;;16.90;;
17606;SDS011;8922;52.240;20.980;2022-11-20T12:48:53;28.60;;;17.20;;
17606;SDS011;8922;52.240;20.980;2022-11-20T12:52:00;29.60;;;18.40;;
17606;SDS011;8922;52.240;20.980;2022-11-20T12:54:46;26.63;;;16.77;;
17606;SDS011;8922;52.240;20.980;2022-11-20T12:57:29;26.07;;;16.23;;
17606;SDS011;8922;52.240;20.980;2022-11-20T13:02:54;27.50;;;17.33;;
17606;SDS011;8922;52.240;20.980;2022-11-20T13:05:35;30.20;;;16.70;;
17606;SDS011;8922;52.240;20.980;2022-11-20T13:08:11;29.00;;;17.27;;
17606;SDS011;8922;52.240;20.980;2022-11-20T13:10:46;25.93;;;17.17;;
17606;SDS011;8922;52.240;20.980;2022-11-20T13:13:17;28.50;;;17.10;;
17606;SDS011;8922;52.240;20.980;2022-11-20T13:15:50;26.77;;;17.17;;
17606;SDS011;8922;52.240;20.980;2022-11-20T13:18:21;27.33;;;17.57;;
17606;SDS011;8922;52.240;20.980;2022-11-20T13:20:48;27.97;;;17.83;;
17606;SDS011;8922;52.240;20.980;2022-11-20T13:23:24;25.17;;;16.13;;
17606;SDS011;8922;52.240;20.980;2022-11-20T13:26:02;25.57;;;16.17;;
17606;SDS011;8922;52.240;20.980;2022-11-20T13:28:31;28.27;;;18.00;;
17606;SDS011;8922;52.240;20.980;2022-11-20T13:30:58;31.33;;;19.47;;
17606;SDS011;8922;52.240;20.980;2022-11-20T13:33:29;37.30;;;21.20;;
17606;SDS011;8922;52.240;20.980;2022-11-20T13:35:58;31.37;;;19.10;;
17606;SDS011;8922;52.240;20.980;2022-11-20T13:38:28;33.10;;;19.00;;
17606;SDS011;8922;52.240;20.980;2022-11-20T13:41:22;32.23;;;19.40;;
17606;SDS011;8922;52.240;20.980;2022-11-20T13:43:59;32.53;;;19.37;;
17606;SDS011;8922;52.240;20.980;2022-11-20T13:46:36;32.10;;;19.30;;
17606;SDS011;8922;52.240;20.980;2022-11-20T13:49:08;31.77;;;20.00;;
17606;SDS011;8922;52.240;20.980;2022-11-20T13:51:40;33.03;;;19.83;;
17606;SDS011;8922;52.240;20.980;2022-11-20T13:54:32;39.07;;;21.77;;
17606;SDS011;8922;52.240;20.980;2022-11-20T13:57:22;35.63;;;19.67;;
17606;SDS011;8922;52.240;20.980;2022-11-20T14:00:13;32.80;;;19.43;;
17606;SDS011;8922;52.240;20.980;2022-11-20T14:02:42;34.67;;;20.77;;
17606;SDS011;8922;52.240;20.980;2022-11-20T14:05:15;30.63;;;19.30;;
17606;SDS011;8922;52.240;20.980;2022-11-20T14:07:46;35.43;;;19.53;;
17606;SDS011;8922;52.240;20.980;2022-11-20T14:10:23;31.60;;;19.47;;
17606;SDS011;8922;52.240;20.980;2022-11-20T14:12:51;30.20;;;19.70;;
17606;SDS011;8922;52.240;20.980;2022-11-20T14:15:25;35.13;;;20.73;;
17606;SDS011;8922;52.240;20.980;2022-11-20T14:17:54;31.10;;;20.20;;
17606;SDS011;8922;52.240;20.980;2022-11-20T14:20:20;33.30;;;20.27;;
17606;SDS011;8922;52.240;20.980;2022-11-20T14:22:52;30.13;;;18.87;;
17606;SDS011;8922;52.240;20.980;2022-11-20T14:25:20;30.92;;;19.23;;
17606;SDS011;8922;52.240;20.980;2022-11-20T14:27:53;36.53;;;20.03;;
17606;SDS011;8922;52.240;20.980;2022-11-20T14:30:22;32.73;;;19.37;;
17606;SDS011;8922;52.240;20.980;2022-11-20T14:32:50;37.10;;;20.60;;
17606;SDS011;8922;52.240;20.980;2022-11-20T14:35:21;35.10;;;20.13;;
17606;SDS011;8922;52.240;20.980;2022-11-20T14:37:50;36.67;;;24.25;;
17606;SDS011;8922;52.240;20.980;2022-11-20T14:40:21;34.73;;;21.07;;
17606;SDS011;8922;52.240;20.980;2022-11-20T14:42:55;37.20;;;25.85;;
17606;SDS011;8922;52.240;20.980;2022-11-20T14:45:22;36.23;;;21.80;;
17606;SDS011;8922;52.240;20.980;2022-11-20T14:47:51;38.03;;;21.37;;
17606;SDS011;8922;52.240;20.980;2022-11-20T14:50:20;33.23;;;19.43;;
17606;SDS011;8922;52.240;20.980;2022-11-20T14:52:50;35.23;;;20.00;;
17606;SDS011;8922;52.240;20.980;2022-11-20T14:55:30;36.23;;;20.47;;
17606;SDS011;8922;52.240;20.980;2022-11-20T14:58:01;38.97;;;19.53;;
17606;SDS011;8922;52.240;20.980;2022-11-20T15:00:30;35.10;;;20.30;;
17606;SDS011;8922;52.240;20.980;2022-11-20T15:02:58;31.73;;;18.97;;
17606;SDS011;8922;52.240;20.980;2022-11-20T15:05:26;33.70;;;19.53;;
17606;SDS011;8922;52.240;20.980;2022-11-20T15:08:12;35.43;;;19.67;;